sensor_id;sensor_type;location;lat;lon;timestamp;temperature;humidity
12013;DHT22;6065;48.138;16.402;2023-06-19T00:01:56;21.00;99.90
12013;DHT22;6065;48.138;16.402;2023-06-19T00:04:23;20.90;99.90
12013;DHT22;6065;48.138;16.402;2023-06-19T00:06:51;20.90;99.90
12013;DHT22;6065;48.138;16.402;2023-06-19T00:09:18;20.90;99.90
12013;DHT22;6065;48.138;16.402;2023-06-19T00:11:45;20.90;99.90
12013;DHT22;6065;48.138;16.402;2023-06-19T00:14:11;20.90;99.90
12013;DHT22;6065;48.138;16.402;2023-06-19T00:16:38;20.80;99.90
12013;DHT22;6065;48.138;16.402;2023-06-19T00:19:05;20.80;99.90
12013;DHT22;6065;48.138;16.402;2023-06-19T00:21:32;20.80;99.90
12013;DHT22;6065;48.138;16.402;2023-06-19T00:24:00;20.80;99.90
12013;DHT22;6065;48.138;16.402;2023-06-19T00:26:27;20.80;99.90
12013;DHT22;6065;48.138;16.402;2023-06-19T00:28:54;20.80;99.90
12013;DHT22;6065;48.138;16.402;2023-06-19T00:31:20;20.80;99.90
12013;DHT22;6065;48.138;16.402;2023-06-19T00:33:47;20.80;99.90
12013;DHT22;6065;48.138;16.402;2023-06-19T00:36:15;20.80;99.90
12013;DHT22;6065;48.138;16.402;2023-06-19T00:38:45;20.70;99.90
12013;DHT22;6065;48.138;16.402;2023-06-19T00:41:13;20.70;99.90
12013;DHT22;6065;48.138;16.402;2023-06-19T00:43:41;20.70;99.90
12013;DHT22;6065;48.138;16.402;2023-06-19T00:46:08;20.70;99.90
12013;DHT22;6065;48.138;16.402;2023-06-19T00:48:35;20.60;99.90
12013;DHT22;6065;48.138;16.402;2023-06-19T00:51:02;20.60;99.90
12013;DHT22;6065;48.138;16.402;2023-06-19T00:53:29;20.50;99.90
12013;DHT22;6065;48.138;16.402;2023-06-19T00:55:57;20.50;99.90
12013;DHT22;6065;48.138;16.402;2023-06-19T00:58:25;20.50;99.90
12013;DHT22;6065;48.138;16.402;2023-06-19T01:00:52;20.50;99.90
12013;DHT22;6065;48.138;16.402;2023-06-19T01:03:19;20.40;99.90
12013;DHT22;6065;48.138;16.402;2023-06-19T01:05:46;20.40;99.90
12013;DHT22;6065;48.138;16.402;2023-06-19T01:08:14;20.40;99.90
12013;DHT22;6065;48.138;16.402;2023-06-19T01:10:48;20.30;99.90
12013;DHT22;6065;48.138;16.402;2023-06-19T01:13:17;20.30;99.90
12013;DHT22;6065;48.138;16.402;2023-06-19T01:15:47;20.20;99.90
12013;DHT22;6065;48.138;16.402;2023-06-19T01:18:14;20.20;99.90
12013;DHT22;6065;48.138;16.402;2023-06-19T01:20:41;20.20;99.90
12013;DHT22;6065;48.138;16.402;2023-06-19T01:23:10;20.10;99.90
12013;DHT22;6065;48.138;16.402;2023-06-19T01:25:37;20.10;99.90
12013;DHT22;6065;48.138;16.402;2023-06-19T01:28:05;20.00;99.90
12013;DHT22;6065;48.138;16.402;2023-06-19T01:30:34;20.00;99.90
12013;DHT22;6065;48.138;16.402;2023-06-19T01:33:03;20.00;99.90
12013;DHT22;6065;48.138;16.402;2023-06-19T01:35:32;20.00;99.90
12013;DHT22;6065;48.138;16.402;2023-06-19T01:37:59;20.00;99.90
12013;DHT22;6065;48.138;16.402;2023-06-19T01:40:28;20.00;99.90
12013;DHT22;6065;48.138;16.402;2023-06-19T01:42:57;20.00;99.90
12013;DHT22;6065;48.138;16.402;2023-06-19T01:45:26;20.00;99.90
12013;DHT22;6065;48.138;16.402;2023-06-19T01:47:53;19.90;99.90
12013;DHT22;6065;48.138;16.402;2023-06-19T01:50:20;19.90;99.90
12013;DHT22;6065;48.138;16.402;2023-06-19T01:52:47;19.90;99.90
12013;DHT22;6065;48.138;16.402;2023-06-19T01:55:14;19.80;99.90
12013;DHT22;6065;48.138;16.402;2023-06-19T01:57:42;19.80;99.90
12013;DHT22;6065;48.138;16.402;2023-06-19T02:00:11;19.80;99.90
12013;DHT22;6065;48.138;16.402;2023-06-19T02:02:38;19.80;99.90
12013;DHT22;6065;48.138;16.402;2023-06-19T02:05:05;19.70;99.90
12013;DHT22;6065;48.138;16.402;2023-06-19T02:07:32;19.70;99.90
12013;DHT22;6065;48.138;16.402;2023-06-19T02:09:59;19.70;99.90
12013;DHT22;6065;48.138;16.402;2023-06-19T02:12:25;19.70;99.90
12013;DHT22;6065;48.138;16.402;2023-06-19T02:14:54;19.60;99.90
12013;DHT22;6065;48.138;16.402;2023-06-19T02:17:20;19.60;99.90
12013;DHT22;6065;48.138;16.402;2023-06-19T02:19:47;19.60;99.90
12013;DHT22;6065;48.138;16.402;2023-06-19T02:22:14;19.60;99.90
12013;DHT22;6065;48.138;16.402;2023-06-19T02:24:40;19.50;99.90
12013;DHT22;6065;48.138;16.402;2023-06-19T02:27:09;19.40;99.90
12013;DHT22;6065;48.138;16.402;2023-06-19T02:29:38;19.40;99.90
12013;DHT22;6065;48.138;16.402;2023-06-19T02:32:07;19.40;99.90
12013;DHT22;6065;48.138;16.402;2023-06-19T02:34:33;19.30;99.90
12013;DHT22;6065;48.138;16.402;2023-06-19T02:37:00;19.30;99.90
12013;DHT22;6065;48.138;16.402;2023-06-19T02:39:27;19.30;99.90
12013;DHT22;6065;48.138;16.402;2023-06-19T02:41:54;19.20;99.90
12013;DHT22;6065;48.138;16.402;2023-06-19T02:44:20;19.20;99.90
12013;DHT22;6065;48.138;16.402;2023-06-19T02:46:47;19.10;99.90
12013;DHT22;6065;48.138;16.402;2023-06-19T02:49:15;19.10;99.90
12013;DHT22;6065;48.138;16.402;2023-06-19T02:51:42;19.10;99.90
12013;DHT22;6065;48.138;16.402;2023-06-19T02:54:09;19.10;99.90
12013;DHT22;6065;48.138;16.402;2023-06-19T02:56:35;19.00;99.90
12013;DHT22;6065;48.138;16.402;2023-06-19T02:59:02;19.00;99.90
12013;DHT22;6065;48.138;16.402;2023-06-19T03:01:29;19.00;99.90
12013;DHT22;6065;48.138;16.402;2023-06-19T03:03:56;19.00;99.90
12013;DHT22;6065;48.138;16.402;2023-06-19T03:06:24;18.90;99.90
12013;DHT22;6065;48.138;16.402;2023-06-19T03:08:51;18.90;99.90
12013;DHT22;6065;48.138;16.402;2023-06-19T03:11:18;18.80;99.90
12013;DHT22;6065;48.138;16.402;2023-06-19T03:13:47;18.80;99.90
12013;DHT22;6065;48.138;16.402;2023-06-19T03:16:14;18.80;99.90
12013;DHT22;6065;48.138;16.402;2023-06-19T03:18:41;18.90;99.90
12013;DHT22;6065;48.138;16.402;2023-06-19T03:21:10;18.80;99.90
12013;DHT22;6065;48.138;16.402;2023-06-19T03:23:38;18.90;99.90
12013;DHT22;6065;48.138;16.402;2023-06-19T03:26:06;18.90;99.90
12013;DHT22;6065;48.138;16.402;2023-06-19T03:28:33;18.90;99.90
12013;DHT22;6065;48.138;16.402;2023-06-19T03:30:59;18.90;99.90
12013;DHT22;6065;48.138;16.402;2023-06-19T03:33:26;18.80;99.90
12013;DHT22;6065;48.138;16.402;2023-06-19T03:35:53;18.80;99.90
12013;DHT22;6065;48.138;16.402;2023-06-19T03:38:20;18.80;99.90
12013;DHT22;6065;48.138;16.402;2023-06-19T03:40:48;18.80;99.90
12013;DHT22;6065;48.138;16.402;2023-06-19T03:43:15;18.80;99.90
12013;DHT22;6065;48.138;16.402;2023-06-19T03:45:41;18.80;99.90
12013;DHT22;6065;48.138;16.402;2023-06-19T03:48:08;18.80;99.90
12013;DHT22;6065;48.138;16.402;2023-06-19T03:50:35;18.80;99.90
12013;DHT22;6065;48.138;16.402;2023-06-19T03:53:02;18.80;99.90
12013;DHT22;6065;48.138;16.402;2023-06-19T03:55:29;18.80;99.90
12013;DHT22;6065;48.138;16.402;2023-06-19T03:57:57;18.80;99.90
12013;DHT22;6065;48.138;16.402;2023-06-19T04:00:23;18.80;99.90
12013;DHT22;6065;48.138;16.402;2023-06-19T04:02:50;18.80;99.90
12013;DHT22;6065;48.138;16.402;2023-06-19T04:05:17;18.80;99.90
12013;DHT22;6065;48.138;16.402;2023-06-19T04:07:45;18.80;99.90
12013;DHT22;6065;48.138;16.402;2023-06-19T04:10:11;18.80;99.90
12013;DHT22;6065;48.138;16.402;2023-06-19T04:12:38;18.80;99.90
12013;DHT22;6065;48.138;16.402;2023-06-19T04:15:08;18.80;99.90
12013;DHT22;6065;48.138;16.402;2023-06-19T04:17:35;18.80;99.90
12013;DHT22;6065;48.138;16.402;2023-06-19T04:20:02;18.80;99.90
12013;DHT22;6065;48.138;16.402;2023-06-19T04:22:35;18.80;99.90
12013;DHT22;6065;48.138;16.402;2023-06-19T04:25:02;18.90;99.90
12013;DHT22;6065;48.138;16.402;2023-06-19T04:27:29;18.90;99.90
12013;DHT22;6065;48.138;16.402;2023-06-19T04:29:56;19.00;99.90
12013;DHT22;6065;48.138;16.402;2023-06-19T04:32:24;19.00;99.90
12013;DHT22;6065;48.138;16.402;2023-06-19T04:34:51;19.00;99.90
12013;DHT22;6065;48.138;16.402;2023-06-19T04:37:17;19.00;99.90
12013;DHT22;6065;48.138;16.402;2023-06-19T04:39:46;19.00;99.90
12013;DHT22;6065;48.138;16.402;2023-06-19T04:42:13;19.10;99.90
12013;DHT22;6065;48.138;16.402;2023-06-19T04:44:44;19.10;99.90
12013;DHT22;6065;48.138;16.402;2023-06-19T04:47:11;19.10;99.90
12013;DHT22;6065;48.138;16.402;2023-06-19T04:49:39;19.20;99.90
12013;DHT22;6065;48.138;16.402;2023-06-19T04:52:06;19.30;99.90
12013;DHT22;6065;48.138;16.402;2023-06-19T04:54:33;19.30;99.90
12013;DHT22;6065;48.138;16.402;2023-06-19T04:56:59;19.30;99.90
12013;DHT22;6065;48.138;16.402;2023-06-19T04:59:26;19.40;99.90
12013;DHT22;6065;48.138;16.402;2023-06-19T05:01:55;19.40;99.90
12013;DHT22;6065;48.138;16.402;2023-06-19T05:04:22;19.50;99.90
12013;DHT22;6065;48.138;16.402;2023-06-19T05:06:50;19.50;99.90
12013;DHT22;6065;48.138;16.402;2023-06-19T05:09:17;19.50;99.90
12013;DHT22;6065;48.138;16.402;2023-06-19T05:11:45;19.60;99.90
12013;DHT22;6065;48.138;16.402;2023-06-19T05:14:11;19.60;99.90
12013;DHT22;6065;48.138;16.402;2023-06-19T05:16:39;19.60;99.90
12013;DHT22;6065;48.138;16.402;2023-06-19T05:19:06;19.70;99.90
12013;DHT22;6065;48.138;16.402;2023-06-19T05:21:33;19.70;99.90
12013;DHT22;6065;48.138;16.402;2023-06-19T05:24:01;19.70;99.90
12013;DHT22;6065;48.138;16.402;2023-06-19T05:26:27;19.70;99.90
12013;DHT22;6065;48.138;16.402;2023-06-19T05:28:54;19.80;99.90
12013;DHT22;6065;48.138;16.402;2023-06-19T05:31:21;19.80;99.90
12013;DHT22;6065;48.138;16.402;2023-06-19T05:33:48;19.80;99.90
12013;DHT22;6065;48.138;16.402;2023-06-19T05:36:14;19.90;99.90
12013;DHT22;6065;48.138;16.402;2023-06-19T05:38:41;19.90;99.90
12013;DHT22;6065;48.138;16.402;2023-06-19T05:41:09;20.00;99.90
12013;DHT22;6065;48.138;16.402;2023-06-19T05:43:36;20.00;99.90
12013;DHT22;6065;48.138;16.402;2023-06-19T05:46:04;20.00;99.90
12013;DHT22;6065;48.138;16.402;2023-06-19T05:48:31;20.10;99.90
12013;DHT22;6065;48.138;16.402;2023-06-19T05:50:58;20.10;99.90
12013;DHT22;6065;48.138;16.402;2023-06-19T05:53:29;20.10;99.90
12013;DHT22;6065;48.138;16.402;2023-06-19T05:55:57;20.10;99.90
12013;DHT22;6065;48.138;16.402;2023-06-19T05:58:26;20.20;99.90
12013;DHT22;6065;48.138;16.402;2023-06-19T06:00:54;20.20;99.90
12013;DHT22;6065;48.138;16.402;2023-06-19T06:03:23;20.30;99.90
12013;DHT22;6065;48.138;16.402;2023-06-19T06:05:50;20.30;99.90
12013;DHT22;6065;48.138;16.402;2023-06-19T06:08:18;20.40;99.90
12013;DHT22;6065;48.138;16.402;2023-06-19T06:10:45;20.40;99.90
12013;DHT22;6065;48.138;16.402;2023-06-19T06:13:12;20.50;99.90
12013;DHT22;6065;48.138;16.402;2023-06-19T06:15:41;20.60;99.90
12013;DHT22;6065;48.138;16.402;2023-06-19T06:18:09;20.70;99.90
12013;DHT22;6065;48.138;16.402;2023-06-19T06:20:37;20.70;99.90
12013;DHT22;6065;48.138;16.402;2023-06-19T06:23:05;20.80;99.90
12013;DHT22;6065;48.138;16.402;2023-06-19T06:25:32;20.90;99.90
12013;DHT22;6065;48.138;16.402;2023-06-19T06:28:00;20.90;99.90
12013;DHT22;6065;48.138;16.402;2023-06-19T06:30:27;21.00;99.90
12013;DHT22;6065;48.138;16.402;2023-06-19T06:32:56;21.00;99.90
12013;DHT22;6065;48.138;16.402;2023-06-19T06:35:24;21.10;99.90
12013;DHT22;6065;48.138;16.402;2023-06-19T06:37:51;21.20;99.90
12013;DHT22;6065;48.138;16.402;2023-06-19T06:40:19;21.20;99.90
12013;DHT22;6065;48.138;16.402;2023-06-19T06:42:48;21.30;99.90
12013;DHT22;6065;48.138;16.402;2023-06-19T06:45:16;21.30;99.90
12013;DHT22;6065;48.138;16.402;2023-06-19T06:47:43;21.40;99.90
12013;DHT22;6065;48.138;16.402;2023-06-19T06:50:15;21.40;99.90
12013;DHT22;6065;48.138;16.402;2023-06-19T06:52:44;21.40;99.90
12013;DHT22;6065;48.138;16.402;2023-06-19T06:55:13;21.50;99.90
12013;DHT22;6065;48.138;16.402;2023-06-19T06:57:41;21.50;99.90
12013;DHT22;6065;48.138;16.402;2023-06-19T07:00:12;21.60;99.90
12013;DHT22;6065;48.138;16.402;2023-06-19T07:02:39;21.70;99.90
12013;DHT22;6065;48.138;16.402;2023-06-19T07:05:06;21.80;99.90
12013;DHT22;6065;48.138;16.402;2023-06-19T07:07:35;21.80;99.90
12013;DHT22;6065;48.138;16.402;2023-06-19T07:10:01;21.90;99.90
12013;DHT22;6065;48.138;16.402;2023-06-19T07:12:29;22.00;99.90
12013;DHT22;6065;48.138;16.402;2023-06-19T07:14:55;22.00;99.90
12013;DHT22;6065;48.138;16.402;2023-06-19T07:17:22;22.10;99.90
12013;DHT22;6065;48.138;16.402;2023-06-19T07:19:49;22.10;99.90
12013;DHT22;6065;48.138;16.402;2023-06-19T07:22:16;22.20;99.90
12013;DHT22;6065;48.138;16.402;2023-06-19T07:24:44;22.20;99.90
12013;DHT22;6065;48.138;16.402;2023-06-19T07:27:11;22.30;99.90
12013;DHT22;6065;48.138;16.402;2023-06-19T07:29:38;22.40;99.90
12013;DHT22;6065;48.138;16.402;2023-06-19T07:32:05;22.40;99.80
12013;DHT22;6065;48.138;16.402;2023-06-19T07:34:32;22.40;99.90
12013;DHT22;6065;48.138;16.402;2023-06-19T07:36:58;22.50;99.90
12013;DHT22;6065;48.138;16.402;2023-06-19T07:39:25;22.50;99.90
12013;DHT22;6065;48.138;16.402;2023-06-19T07:41:53;22.60;99.10
12013;DHT22;6065;48.138;16.402;2023-06-19T07:44:20;22.60;99.10
12013;DHT22;6065;48.138;16.402;2023-06-19T07:46:47;22.70;99.30
12013;DHT22;6065;48.138;16.402;2023-06-19T07:49:13;22.80;99.00
12013;DHT22;6065;48.138;16.402;2023-06-19T07:51:40;22.80;99.30
12013;DHT22;6065;48.138;16.402;2023-06-19T07:54:07;22.90;99.40
12013;DHT22;6065;48.138;16.402;2023-06-19T07:56:33;22.90;99.40
12013;DHT22;6065;48.138;16.402;2023-06-19T07:59:01;23.00;99.40
12013;DHT22;6065;48.138;16.402;2023-06-19T08:01:28;23.00;99.40
12013;DHT22;6065;48.138;16.402;2023-06-19T08:03:55;23.10;98.70
12013;DHT22;6065;48.138;16.402;2023-06-19T08:06:22;23.20;98.90
12013;DHT22;6065;48.138;16.402;2023-06-19T08:08:48;23.20;98.90
12013;DHT22;6065;48.138;16.402;2023-06-19T08:11:15;23.30;99.60
12013;DHT22;6065;48.138;16.402;2023-06-19T08:13:42;23.40;99.20
12013;DHT22;6065;48.138;16.402;2023-06-19T08:16:10;23.50;98.90
12013;DHT22;6065;48.138;16.402;2023-06-19T08:18:36;23.50;98.80
12013;DHT22;6065;48.138;16.402;2023-06-19T08:21:03;23.60;98.60
12013;DHT22;6065;48.138;16.402;2023-06-19T08:23:30;23.70;98.50
12013;DHT22;6065;48.138;16.402;2023-06-19T08:25:57;23.80;98.40
12013;DHT22;6065;48.138;16.402;2023-06-19T08:28:23;23.80;98.80
12013;DHT22;6065;48.138;16.402;2023-06-19T08:30:50;23.80;98.50
12013;DHT22;6065;48.138;16.402;2023-06-19T08:33:18;23.90;98.70
12013;DHT22;6065;48.138;16.402;2023-06-19T08:35:45;23.90;98.40
12013;DHT22;6065;48.138;16.402;2023-06-19T08:38:13;24.00;98.90
12013;DHT22;6065;48.138;16.402;2023-06-19T08:40:40;24.10;98.70
12013;DHT22;6065;48.138;16.402;2023-06-19T08:43:07;24.20;98.80
12013;DHT22;6065;48.138;16.402;2023-06-19T08:45:34;24.20;98.50
12013;DHT22;6065;48.138;16.402;2023-06-19T08:48:01;24.30;98.20
12013;DHT22;6065;48.138;16.402;2023-06-19T08:50:30;24.40;98.00
12013;DHT22;6065;48.138;16.402;2023-06-19T08:52:57;24.40;98.30
12013;DHT22;6065;48.138;16.402;2023-06-19T08:55:24;24.50;97.80
12013;DHT22;6065;48.138;16.402;2023-06-19T08:57:51;24.50;98.10
12013;DHT22;6065;48.138;16.402;2023-06-19T09:00:27;24.60;97.90
12013;DHT22;6065;48.138;16.402;2023-06-19T09:03:18;24.60;97.60
12013;DHT22;6065;48.138;16.402;2023-06-19T09:05:47;24.70;97.70
12013;DHT22;6065;48.138;16.402;2023-06-19T09:08:16;24.70;97.80
12013;DHT22;6065;48.138;16.402;2023-06-19T09:10:42;24.80;97.30
12013;DHT22;6065;48.138;16.402;2023-06-19T09:13:09;24.80;97.40
12013;DHT22;6065;48.138;16.402;2023-06-19T09:15:36;24.90;97.50
12013;DHT22;6065;48.138;16.402;2023-06-19T09:18:04;24.90;97.60
12013;DHT22;6065;48.138;16.402;2023-06-19T09:20:30;24.90;97.90
12013;DHT22;6065;48.138;16.402;2023-06-19T09:22:59;24.90;98.00
12013;DHT22;6065;48.138;16.402;2023-06-19T09:25:26;24.90;98.70
12013;DHT22;6065;48.138;16.402;2023-06-19T09:27:53;25.00;98.40
12013;DHT22;6065;48.138;16.402;2023-06-19T09:30:20;25.10;98.50
12013;DHT22;6065;48.138;16.402;2023-06-19T09:32:47;25.10;98.50
12013;DHT22;6065;48.138;16.402;2023-06-19T09:35:14;25.20;98.80
12013;DHT22;6065;48.138;16.402;2023-06-19T09:37:40;25.30;99.20
12013;DHT22;6065;48.138;16.402;2023-06-19T09:40:09;25.40;98.70
12013;DHT22;6065;48.138;16.402;2023-06-19T09:42:37;25.50;99.00
12013;DHT22;6065;48.138;16.402;2023-06-19T09:45:04;25.60;98.80
12013;DHT22;6065;48.138;16.402;2023-06-19T09:47:32;25.70;98.40
12013;DHT22;6065;48.138;16.402;2023-06-19T09:50:00;25.70;98.10
12013;DHT22;6065;48.138;16.402;2023-06-19T09:52:28;25.70;98.20
12013;DHT22;6065;48.138;16.402;2023-06-19T09:54:55;25.80;98.30
12013;DHT22;6065;48.138;16.402;2023-06-19T09:57:24;25.80;98.30
12013;DHT22;6065;48.138;16.402;2023-06-19T09:59:52;25.90;97.90
12013;DHT22;6065;48.138;16.402;2023-06-19T10:02:19;25.90;97.90
12013;DHT22;6065;48.138;16.402;2023-06-19T10:04:49;26.00;97.80
12013;DHT22;6065;48.138;16.402;2023-06-19T10:07:16;26.10;98.10
12013;DHT22;6065;48.138;16.402;2023-06-19T10:09:54;26.20;98.10
12013;DHT22;6065;48.138;16.402;2023-06-19T10:12:21;26.30;97.70
12013;DHT22;6065;48.138;16.402;2023-06-19T10:14:51;26.40;97.00
12013;DHT22;6065;48.138;16.402;2023-06-19T10:17:18;26.40;96.90
12013;DHT22;6065;48.138;16.402;2023-06-19T10:19:49;26.40;97.50
12013;DHT22;6065;48.138;16.402;2023-06-19T10:22:19;26.50;97.00
12013;DHT22;6065;48.138;16.402;2023-06-19T10:24:48;26.60;97.90
12013;DHT22;6065;48.138;16.402;2023-06-19T10:27:20;26.70;97.60
12013;DHT22;6065;48.138;16.402;2023-06-19T10:29:51;26.80;97.50
12013;DHT22;6065;48.138;16.402;2023-06-19T10:32:19;26.90;97.50
12013;DHT22;6065;48.138;16.402;2023-06-19T10:34:47;27.00;97.30
12013;DHT22;6065;48.138;16.402;2023-06-19T10:37:14;27.00;96.50
12013;DHT22;6065;48.138;16.402;2023-06-19T10:39:41;27.10;96.80
12013;DHT22;6065;48.138;16.402;2023-06-19T10:42:08;27.10;97.20
12013;DHT22;6065;48.138;16.402;2023-06-19T10:44:35;27.10;96.80
12013;DHT22;6065;48.138;16.402;2023-06-19T10:47:02;27.20;96.20
12013;DHT22;6065;48.138;16.402;2023-06-19T10:49:30;27.30;95.40
12013;DHT22;6065;48.138;16.402;2023-06-19T10:51:59;27.40;95.60
12013;DHT22;6065;48.138;16.402;2023-06-19T10:54:27;27.50;95.80
12013;DHT22;6065;48.138;16.402;2023-06-19T10:56:54;27.60;95.60
12013;DHT22;6065;48.138;16.402;2023-06-19T10:59:22;27.70;95.80
12013;DHT22;6065;48.138;16.402;2023-06-19T11:01:50;27.80;95.80
12013;DHT22;6065;48.138;16.402;2023-06-19T11:04:16;27.80;95.80
12013;DHT22;6065;48.138;16.402;2023-06-19T11:06:45;27.90;95.20
12013;DHT22;6065;48.138;16.402;2023-06-19T11:09:12;28.00;96.10
12013;DHT22;6065;48.138;16.402;2023-06-19T11:11:40;28.10;95.20
12013;DHT22;6065;48.138;16.402;2023-06-19T11:14:07;28.20;94.20
12013;DHT22;6065;48.138;16.402;2023-06-19T11:16:34;28.20;94.10
12013;DHT22;6065;48.138;16.402;2023-06-19T11:19:01;28.20;94.90
12013;DHT22;6065;48.138;16.402;2023-06-19T11:21:31;28.20;94.80
12013;DHT22;6065;48.138;16.402;2023-06-19T11:24:01;28.20;94.10
12013;DHT22;6065;48.138;16.402;2023-06-19T11:26:28;28.30;93.50
12013;DHT22;6065;48.138;16.402;2023-06-19T11:28:55;28.40;93.50
12013;DHT22;6065;48.138;16.402;2023-06-19T11:31:25;28.30;93.40
12013;DHT22;6065;48.138;16.402;2023-06-19T11:33:56;28.40;93.40
12013;DHT22;6065;48.138;16.402;2023-06-19T11:36:23;28.50;93.00
12013;DHT22;6065;48.138;16.402;2023-06-19T11:38:50;28.50;93.70
12013;DHT22;6065;48.138;16.402;2023-06-19T11:41:25;28.70;93.70
12013;DHT22;6065;48.138;16.402;2023-06-19T11:43:57;28.70;92.60
12013;DHT22;6065;48.138;16.402;2023-06-19T11:46:28;28.70;93.90
12013;DHT22;6065;48.138;16.402;2023-06-19T11:48:55;28.80;93.40
12013;DHT22;6065;48.138;16.402;2023-06-19T11:51:22;28.80;93.40
12013;DHT22;6065;48.138;16.402;2023-06-19T11:53:49;28.90;93.50
12013;DHT22;6065;48.138;16.402;2023-06-19T11:56:15;28.90;93.20
12013;DHT22;6065;48.138;16.402;2023-06-19T11:58:43;29.00;92.50
12013;DHT22;6065;48.138;16.402;2023-06-19T12:01:10;29.00;92.80
12013;DHT22;6065;48.138;16.402;2023-06-19T12:03:37;29.10;92.40
12013;DHT22;6065;48.138;16.402;2023-06-19T12:06:04;29.20;90.80
12013;DHT22;6065;48.138;16.402;2023-06-19T12:08:31;29.30;91.70
12013;DHT22;6065;48.138;16.402;2023-06-19T12:10:58;29.40;90.90
12013;DHT22;6065;48.138;16.402;2023-06-19T12:13:25;29.30;90.40
12013;DHT22;6065;48.138;16.402;2023-06-19T12:15:53;29.30;90.60
12013;DHT22;6065;48.138;16.402;2023-06-19T12:18:20;29.40;90.00
12013;DHT22;6065;48.138;16.402;2023-06-19T12:20:46;29.40;89.00
12013;DHT22;6065;48.138;16.402;2023-06-19T12:23:13;29.50;87.80
12013;DHT22;6065;48.138;16.402;2023-06-19T12:25:40;29.50;86.10
12013;DHT22;6065;48.138;16.402;2023-06-19T12:28:06;29.60;85.40
12013;DHT22;6065;48.138;16.402;2023-06-19T12:30:33;29.60;86.00
12013;DHT22;6065;48.138;16.402;2023-06-19T12:33:02;29.60;87.80
12013;DHT22;6065;48.138;16.402;2023-06-19T12:35:29;29.70;88.70
12013;DHT22;6065;48.138;16.402;2023-06-19T12:37:56;29.80;88.50
12013;DHT22;6065;48.138;16.402;2023-06-19T12:40:23;29.80;84.30
12013;DHT22;6065;48.138;16.402;2023-06-19T12:42:49;29.80;83.90
12013;DHT22;6065;48.138;16.402;2023-06-19T12:45:16;29.80;87.40
12013;DHT22;6065;48.138;16.402;2023-06-19T12:47:43;29.80;85.80
12013;DHT22;6065;48.138;16.402;2023-06-19T12:50:11;29.90;85.50
12013;DHT22;6065;48.138;16.402;2023-06-19T12:52:38;29.90;83.40
12013;DHT22;6065;48.138;16.402;2023-06-19T12:55:05;29.90;84.10
12013;DHT22;6065;48.138;16.402;2023-06-19T12:57:31;29.90;84.20
12013;DHT22;6065;48.138;16.402;2023-06-19T12:59:58;30.00;84.10
12013;DHT22;6065;48.138;16.402;2023-06-19T13:02:25;30.00;83.80
12013;DHT22;6065;48.138;16.402;2023-06-19T13:04:52;30.00;82.50
12013;DHT22;6065;48.138;16.402;2023-06-19T13:07:20;30.00;83.50
12013;DHT22;6065;48.138;16.402;2023-06-19T13:09:47;30.00;83.80
12013;DHT22;6065;48.138;16.402;2023-06-19T13:12:13;30.10;83.30
12013;DHT22;6065;48.138;16.402;2023-06-19T13:14:40;30.00;82.00
12013;DHT22;6065;48.138;16.402;2023-06-19T13:17:07;30.10;81.60
12013;DHT22;6065;48.138;16.402;2023-06-19T13:19:34;30.10;81.30
12013;DHT22;6065;48.138;16.402;2023-06-19T13:22:00;30.10;81.00
12013;DHT22;6065;48.138;16.402;2023-06-19T13:24:29;30.10;81.00
12013;DHT22;6065;48.138;16.402;2023-06-19T13:26:55;30.20;81.70
12013;DHT22;6065;48.138;16.402;2023-06-19T13:29:22;30.30;80.20
12013;DHT22;6065;48.138;16.402;2023-06-19T13:31:49;30.30;80.80
12013;DHT22;6065;48.138;16.402;2023-06-19T13:34:15;30.30;80.60
12013;DHT22;6065;48.138;16.402;2023-06-19T13:36:43;30.30;78.10
12013;DHT22;6065;48.138;16.402;2023-06-19T13:39:10;30.30;77.50
12013;DHT22;6065;48.138;16.402;2023-06-19T13:41:38;30.40;76.90
12013;DHT22;6065;48.138;16.402;2023-06-19T13:44:05;30.40;75.60
12013;DHT22;6065;48.138;16.402;2023-06-19T13:46:32;30.40;76.10
12013;DHT22;6065;48.138;16.402;2023-06-19T13:48:59;30.40;76.70
12013;DHT22;6065;48.138;16.402;2023-06-19T13:51:26;30.40;76.40
12013;DHT22;6065;48.138;16.402;2023-06-19T13:53:52;30.40;76.50
12013;DHT22;6065;48.138;16.402;2023-06-19T13:56:19;30.40;77.40
12013;DHT22;6065;48.138;16.402;2023-06-19T13:58:49;30.50;75.70
12013;DHT22;6065;48.138;16.402;2023-06-19T14:01:15;30.50;73.50
12013;DHT22;6065;48.138;16.402;2023-06-19T14:03:42;30.50;74.20
12013;DHT22;6065;48.138;16.402;2023-06-19T14:06:09;30.40;75.70
12013;DHT22;6065;48.138;16.402;2023-06-19T14:08:35;30.40;76.80
12013;DHT22;6065;48.138;16.402;2023-06-19T14:11:02;30.40;77.00
12013;DHT22;6065;48.138;16.402;2023-06-19T14:13:29;30.40;77.30
12013;DHT22;6065;48.138;16.402;2023-06-19T14:15:57;30.40;77.30
12013;DHT22;6065;48.138;16.402;2023-06-19T14:18:23;30.30;77.10
12013;DHT22;6065;48.138;16.402;2023-06-19T14:20:50;30.40;77.50
12013;DHT22;6065;48.138;16.402;2023-06-19T14:23:17;30.40;76.80
12013;DHT22;6065;48.138;16.402;2023-06-19T14:25:44;30.40;77.60
12013;DHT22;6065;48.138;16.402;2023-06-19T14:28:10;30.50;77.40
12013;DHT22;6065;48.138;16.402;2023-06-19T14:30:39;30.50;76.70
12013;DHT22;6065;48.138;16.402;2023-06-19T14:33:07;30.50;76.50
12013;DHT22;6065;48.138;16.402;2023-06-19T14:35:40;30.50;76.60
12013;DHT22;6065;48.138;16.402;2023-06-19T14:38:06;30.50;76.60
12013;DHT22;6065;48.138;16.402;2023-06-19T14:40:33;30.40;76.30
12013;DHT22;6065;48.138;16.402;2023-06-19T14:43:00;30.40;76.90
12013;DHT22;6065;48.138;16.402;2023-06-19T14:45:27;30.40;77.00
12013;DHT22;6065;48.138;16.402;2023-06-19T14:47:53;30.40;77.70
12013;DHT22;6065;48.138;16.402;2023-06-19T14:50:21;30.40;77.30
12013;DHT22;6065;48.138;16.402;2023-06-19T14:52:48;30.50;78.50
12013;DHT22;6065;48.138;16.402;2023-06-19T14:55:15;30.50;78.40
12013;DHT22;6065;48.138;16.402;2023-06-19T14:57:41;30.50;76.70
12013;DHT22;6065;48.138;16.402;2023-06-19T15:00:09;30.60;76.30
12013;DHT22;6065;48.138;16.402;2023-06-19T15:02:35;30.60;76.20
12013;DHT22;6065;48.138;16.402;2023-06-19T15:05:02;30.60;76.30
12013;DHT22;6065;48.138;16.402;2023-06-19T15:07:30;30.50;75.40
12013;DHT22;6065;48.138;16.402;2023-06-19T15:09:57;30.50;75.20
12013;DHT22;6065;48.138;16.402;2023-06-19T15:12:24;30.40;75.10
12013;DHT22;6065;48.138;16.402;2023-06-19T15:14:50;30.40;74.60
12013;DHT22;6065;48.138;16.402;2023-06-19T15:17:17;30.50;74.90
12013;DHT22;6065;48.138;16.402;2023-06-19T15:19:44;30.50;75.10
12013;DHT22;6065;48.138;16.402;2023-06-19T15:22:10;30.50;75.30
12013;DHT22;6065;48.138;16.402;2023-06-19T15:24:38;30.50;74.90
12013;DHT22;6065;48.138;16.402;2023-06-19T15:27:05;30.40;75.50
12013;DHT22;6065;48.138;16.402;2023-06-19T15:29:32;30.40;75.70
12013;DHT22;6065;48.138;16.402;2023-06-19T15:31:59;30.40;75.60